Big Bear Station Historical Data
Daily Summary for November 18, 2017 Units:  English    Metric   Both
« Previous Day
Next Day »
Daily Weekly Monthly Yearly Custom
  High: Low: Average:
Temperature: 57.2 °F 23.9 °F 36 °F
Dew Point: 30.5 °F 14.3 °F 22 °F
Humidity: 88 % 28 % 61 %
Wind Speed: 4.7 mph 0.0 mph 0.6 mph
Wind Gust: -999.0 mph - -
Wind:- - West
Pressure: 30.29 in 30.23 in -
Precipitation: 0.00 in    
Historical Graphs
 
 
Tabular Data for November 18, 2017
Time Temperature Dew Point Pressure Wind Wind Speed Wind Gust Humidity Rainfall Rate (Hourly)
00:14 27.9 °F 20.0 °F 30.24 in SSW 2.2 mph -999.0 mph 72 % 0 in
00:29 27.5 °F 21.2 °F 30.24 in South 2.7 mph -999.0 mph 77 % 0 in
00:44 27.1 °F 19.6 °F 30.25 in NNW 1.1 mph -999.0 mph 73 % 0 in
00:59 26.8 °F 20.6 °F 30.24 in Calm   -999.0 mph 77 % 0 in
01:14 27.1 °F 20.5 °F 30.24 in Calm   -999.0 mph 76 % 0 in
01:30 27.0 °F 19.5 °F 30.25 in South 2.2 mph -999.0 mph 73 % 0 in
01:45 27.1 °F 18.6 °F 30.24 in SE 1.1 mph -999.0 mph 70 % 0 in
02:00 26.2 °F 16.7 °F 30.25 in Calm   -999.0 mph 67 % 0 in
02:16 26.1 °F 16.6 °F 30.25 in Calm   -999.0 mph 67 % 0 in
02:31 25.9 °F 19.4 °F 30.25 in Calm   -999.0 mph 76 % 0 in
02:46 25.9 °F 20.3 °F 30.24 in Calm   -999.0 mph 79 % 0 in
03:01 25.5 °F 20.2 °F 30.24 in Calm   -999.0 mph 80 % 0 in
03:16 25.2 °F 20.2 °F 30.24 in Calm   -999.0 mph 81 % 0 in
03:32 25.3 °F 20.6 °F 30.25 in Calm   -999.0 mph 82 % 0 in
03:47 24.4 °F 20.3 °F 30.24 in Calm   -999.0 mph 84 % 0 in
04:02 25.0 °F 21.1 °F 30.24 in Calm   -999.0 mph 85 % 0 in
04:17 24.6 °F 21.0 °F 30.24 in Calm   -999.0 mph 86 % 0 in
04:32 24.3 °F 19.0 °F 30.25 in Calm   -999.0 mph 80 % 0 in
04:48 24.3 °F 19.6 °F 30.25 in Calm   -999.0 mph 82 % 0 in
05:03 24.3 °F 20.4 °F 30.25 in Calm   -999.0 mph 85 % 0 in
05:18 24.3 °F 20.7 °F 30.25 in Calm   -999.0 mph 86 % 0 in
05:33 24.4 °F 20.8 °F 30.25 in Calm   -999.0 mph 86 % 0 in
05:48 23.9 °F 20.6 °F 30.26 in Calm   -999.0 mph 87 % 0 in
06:04 23.9 °F 20.3 °F 30.26 in Calm   -999.0 mph 86 % 0 in
06:19 24.3 °F 18.7 °F 30.26 in Calm   -999.0 mph 79 % 0 in
06:34 23.9 °F 18.0 °F 30.27 in Calm   -999.0 mph 78 % 0 in
06:49 24.1 °F 19.4 °F 30.27 in Calm   -999.0 mph 82 % 0 in
07:04 24.1 °F 20.0 °F 30.27 in Calm   -999.0 mph 84 % 0 in
07:20 24.1 °F 20.0 °F 30.28 in Calm   -999.0 mph 84 % 0 in
07:35 24.8 °F 21.5 °F 30.28 in Calm   -999.0 mph 87 % 0 in
07:50 25.0 °F 21.7 °F 30.29 in Calm   -999.0 mph 87 % 0 in
08:05 25.3 °F 22.2 °F 30.29 in Calm   -999.0 mph 88 % 0 in
08:21 26.6 °F 23.5 °F 30.29 in Calm   -999.0 mph 88 % 0 in
08:36 28.0 °F 22.9 °F 30.29 in Calm   -999.0 mph 81 % 0 in
08:51 29.7 °F 24.6 °F 30.29 in Calm   -999.0 mph 81 % 0 in
09:06 30.9 °F 26.1 °F 30.29 in Calm   -999.0 mph 82 % 0 in
09:21 33.6 °F 28.1 °F 30.29 in Calm   -999.0 mph 80 % 0 in
09:37 37.2 °F 29.0 °F 30.29 in Calm   -999.0 mph 72 % 0 in
09:52 42.4 °F 23.1 °F 30.29 in Calm   -999.0 mph 46 % 0 in
10:07 41.5 °F 25.2 °F 30.29 in Calm   -999.0 mph 52 % 0 in
10:22 43.9 °F 23.4 °F 30.29 in Calm   -999.0 mph 44 % 0 in
10:37 48.0 °F 20.2 °F 30.29 in WNW 2.2 mph -999.0 mph 33 % 0 in
10:53 49.8 °F 21.1 °F 30.29 in WNW 1.1 mph -999.0 mph 32 % 0 in
11:08 51.6 °F 21.2 °F 30.28 in NW 2.2 mph -999.0 mph 30 % 0 in
11:24 52.5 °F 21.1 °F 30.28 in Calm   -999.0 mph 29 % 0 in
11:39 54.1 °F 21.7 °F 30.27 in NNW 3.2 mph -999.0 mph 28 % 0 in
11:54 54.7 °F 23.9 °F 30.27 in WNW 2.7 mph -999.0 mph 30 % 0 in
12:09 55.8 °F 24.8 °F 30.26 in NNE 2.2 mph -999.0 mph 30 % 0 in
12:24 55.6 °F 25.4 °F 30.25 in North 3.2 mph -999.0 mph 31 % 0 in
12:40 57.2 °F 26.0 °F 30.25 in NW 2.2 mph -999.0 mph 30 % 0 in
12:55 55.9 °F 27.2 °F 30.23 in NNW 2.7 mph -999.0 mph 33 % 0 in
13:10 55.0 °F 24.9 °F 30.23 in West 2.7 mph -999.0 mph 31 % 0 in
13:26 54.7 °F 24.6 °F 30.23 in NW 2.2 mph -999.0 mph 31 % 0 in
13:41 54.1 °F 29.0 °F 30.24 in WNW 1.7 mph -999.0 mph 38 % 0 in
13:56 53.8 °F 30.0 °F 30.23 in NW 2.2 mph -999.0 mph 40 % 0 in
14:12 53.2 °F 29.5 °F 30.23 in North 2.2 mph -999.0 mph 40 % 0 in
14:27 52.3 °F 30.5 °F 30.23 in NW 4.7 mph -999.0 mph 43 % 0 in
14:42 52.2 °F 29.8 °F 30.23 in NNE 1.1 mph -999.0 mph 42 % 0 in
14:57 51.4 °F 29.6 °F 30.23 in Calm   -999.0 mph 43 % 0 in
15:12 51.3 °F 30.1 °F 30.23 in WNW 2.2 mph -999.0 mph 44 % 0 in
15:28 50.7 °F 30.1 °F 30.23 in Calm   -999.0 mph 45 % 0 in
15:43 50.4 °F 29.3 °F 30.24 in Calm   -999.0 mph 44 % 0 in
15:58 49.8 °F 22.5 °F 30.24 in Calm   -999.0 mph 34 % 0 in
16:13 48.7 °F 20.9 °F 30.24 in Calm   -999.0 mph 33 % 0 in
16:28 47.1 °F 20.8 °F 30.24 in Calm   -999.0 mph 35 % 0 in
16:44 45.3 °F 21.8 °F 30.24 in Calm   -999.0 mph 39 % 0 in
16:59 43.9 °F 22.8 °F 30.24 in Calm   -999.0 mph 43 % 0 in
17:14 42.4 °F 23.1 °F 30.24 in Calm   -999.0 mph 46 % 0 in
17:29 41.5 °F 23.3 °F 30.24 in Calm   -999.0 mph 48 % 0 in
17:45 40.6 °F 22.9 °F 30.25 in Calm   -999.0 mph 49 % 0 in
18:00 39.7 °F 23.0 °F 30.25 in Calm   -999.0 mph 51 % 0 in
18:16 38.7 °F 22.1 °F 30.25 in Calm   -999.0 mph 51 % 0 in
18:31 37.8 °F 22.2 °F 30.25 in Calm   -999.0 mph 53 % 0 in
18:46 36.5 °F 22.7 °F 30.25 in Calm   -999.0 mph 57 % 0 in
19:01 35.8 °F 22.9 °F 30.25 in Calm   -999.0 mph 59 % 0 in
19:32 34.5 °F 23.2 °F 30.26 in Calm   -999.0 mph 63 % 0 in
19:47 33.6 °F 20.4 °F 30.26 in Calm   -999.0 mph 58 % 0 in
20:02 32.9 °F 19.3 °F 30.26 in Calm   -999.0 mph 57 % 0 in
20:17 32.2 °F 17.4 °F 30.26 in Calm   -999.0 mph 54 % 0 in
20:48 30.6 °F 16.3 °F 30.26 in Calm   -999.0 mph 55 % 0 in
21:03 29.7 °F 15.1 °F 30.26 in Calm   -999.0 mph 54 % 0 in
21:18 29.3 °F 14.3 °F 30.26 in Calm   -999.0 mph 53 % 0 in
21:33 29.1 °F 18.1 °F 30.26 in Calm   -999.0 mph 63 % 0 in
21:48 28.4 °F 18.8 °F 30.26 in Calm   -999.0 mph 67 % 0 in
22:04 27.7 °F 18.9 °F 30.26 in Calm   -999.0 mph 69 % 0 in
22:34 27.1 °F 17.2 °F 30.26 in Calm   -999.0 mph 66 % 0 in
22:49 27.1 °F 16.9 °F 30.26 in Calm   -999.0 mph 65 % 0 in
23:04 26.6 °F 17.8 °F 30.26 in Calm   -999.0 mph 69 % 0 in
23:20 26.2 °F 17.7 °F 30.26 in Calm   -999.0 mph 70 % 0 in
Big Bear CA Weather
Compliments of Weather Underground - 1.5 mb